sensor_id;sensor_type;location;lat;lon;timestamp;pressure;altitude;pressure_sealevel;temperature;humidity
2563;BME280;1291;51.420;6.970;2023-07-16T00:00:51;99435.88;;;32.37;nan
2563;BME280;1291;51.420;6.970;2023-07-16T00:03:16;99438.47;;;33.68;nan
2563;BME280;1291;51.420;6.970;2023-07-16T00:05:42;99432.88;;;32.89;nan
2563;BME280;1291;51.420;6.970;2023-07-16T00:08:08;99426.31;;;33.40;nan
2563;BME280;1291;51.420;6.970;2023-07-16T00:10:36;99429.28;;;32.78;nan
2563;BME280;1291;51.420;6.970;2023-07-16T00:13:03;99433.00;;;32.51;nan
2563;BME280;1291;51.420;6.970;2023-07-16T00:15:29;99426.03;;;33.32;nan
2563;BME280;1291;51.420;6.970;2023-07-16T00:17:54;99431.81;;;33.50;nan
2563;BME280;1291;51.420;6.970;2023-07-16T00:20:20;99433.97;;;33.34;nan
2563;BME280;1291;51.420;6.970;2023-07-16T00:22:45;99443.19;;;32.35;nan
2563;BME280;1291;51.420;6.970;2023-07-16T00:25:11;99442.94;;;32.75;nan
2563;BME280;1291;51.420;6.970;2023-07-16T00:27:36;99446.47;;;32.99;nan
2563;BME280;1291;51.420;6.970;2023-07-16T00:30:02;99435.41;;;30.49;nan
2563;BME280;1291;51.420;6.970;2023-07-16T00:32:31;99449.91;;;30.86;nan
2563;BME280;1291;51.420;6.970;2023-07-16T00:34:56;99467.47;;;30.78;nan
2563;BME280;1291;51.420;6.970;2023-07-16T00:37:22;99467.31;;;31.98;nan
2563;BME280;1291;51.420;6.970;2023-07-16T00:39:47;99466.16;;;31.50;nan
2563;BME280;1291;51.420;6.970;2023-07-16T00:42:13;99462.78;;;31.34;nan
2563;BME280;1291;51.420;6.970;2023-07-16T00:44:38;99466.53;;;30.08;nan
2563;BME280;1291;51.420;6.970;2023-07-16T00:47:06;99459.34;;;30.09;nan
2563;BME280;1291;51.420;6.970;2023-07-16T00:49:33;99456.69;;;31.83;nan
2563;BME280;1291;51.420;6.970;2023-07-16T00:51:59;99445.09;;;31.96;nan
2563;BME280;1291;51.420;6.970;2023-07-16T00:54:25;99443.91;;;33.33;nan
2563;BME280;1291;51.420;6.970;2023-07-16T00:56:58;99455.16;;;32.79;nan
2563;BME280;1291;51.420;6.970;2023-07-16T00:59:23;99461.81;;;32.86;nan
2563;BME280;1291;51.420;6.970;2023-07-16T01:01:51;99467.25;;;32.73;nan
2563;BME280;1291;51.420;6.970;2023-07-16T01:04:17;99471.66;;;31.22;nan
2563;BME280;1291;51.420;6.970;2023-07-16T01:06:51;99479.44;;;32.29;nan
2563;BME280;1291;51.420;6.970;2023-07-16T01:09:19;99473.03;;;32.80;nan
2563;BME280;1291;51.420;6.970;2023-07-16T01:11:46;99471.19;;;32.43;nan
2563;BME280;1291;51.420;6.970;2023-07-16T01:14:13;99464.22;;;32.41;nan
2563;BME280;1291;51.420;6.970;2023-07-16T01:16:38;99475.72;;;32.43;nan
2563;BME280;1291;51.420;6.970;2023-07-16T01:19:04;99471.50;;;31.63;nan
2563;BME280;1291;51.420;6.970;2023-07-16T01:24:28;99465.47;;;32.85;nan
2563;BME280;1291;51.420;6.970;2023-07-16T01:27:10;99460.94;;;32.24;nan
2563;BME280;1291;51.420;6.970;2023-07-16T01:29:51;99464.97;;;32.43;nan
2563;BME280;1291;51.420;6.970;2023-07-16T01:32:17;99467.78;;;32.41;nan
2563;BME280;1291;51.420;6.970;2023-07-16T01:34:43;99474.38;;;32.24;nan
2563;BME280;1291;51.420;6.970;2023-07-16T01:37:09;99472.50;;;32.38;nan
2563;BME280;1291;51.420;6.970;2023-07-16T01:39:35;99464.16;;;32.29;nan
2563;BME280;1291;51.420;6.970;2023-07-16T01:42:01;99472.16;;;32.79;nan
2563;BME280;1291;51.420;6.970;2023-07-16T01:44:30;99478.59;;;31.77;nan
2563;BME280;1291;51.420;6.970;2023-07-16T01:47:29;99474.81;;;32.18;nan
2563;BME280;1291;51.420;6.970;2023-07-16T01:49:57;99479.47;;;32.77;nan
2563;BME280;1291;51.420;6.970;2023-07-16T01:52:22;99480.91;;;32.94;nan
2563;BME280;1291;51.420;6.970;2023-07-16T01:54:51;99486.88;;;32.49;nan
2563;BME280;1291;51.420;6.970;2023-07-16T01:57:16;99494.75;;;32.77;nan
2563;BME280;1291;51.420;6.970;2023-07-16T01:59:42;99484.69;;;32.92;nan
2563;BME280;1291;51.420;6.970;2023-07-16T02:02:07;99499.91;;;32.43;nan
2563;BME280;1291;51.420;6.970;2023-07-16T02:04:32;99497.63;;;32.62;nan
2563;BME280;1291;51.420;6.970;2023-07-16T02:06:58;99506.72;;;32.73;nan
2563;BME280;1291;51.420;6.970;2023-07-16T02:09:23;99503.63;;;32.66;nan
2563;BME280;1291;51.420;6.970;2023-07-16T02:11:50;99494.72;;;32.89;nan
2563;BME280;1291;51.420;6.970;2023-07-16T02:14:15;99504.25;;;32.69;nan
2563;BME280;1291;51.420;6.970;2023-07-16T02:16:41;99500.19;;;32.51;nan
2563;BME280;1291;51.420;6.970;2023-07-16T02:19:06;99509.84;;;32.66;nan
2563;BME280;1291;51.420;6.970;2023-07-16T02:21:35;99505.50;;;32.40;nan
2563;BME280;1291;51.420;6.970;2023-07-16T02:24:00;99503.63;;;33.14;nan
2563;BME280;1291;51.420;6.970;2023-07-16T02:26:25;99504.94;;;32.60;nan
2563;BME280;1291;51.420;6.970;2023-07-16T02:28:51;99501.69;;;31.92;nan
2563;BME280;1291;51.420;6.970;2023-07-16T02:31:16;99505.34;;;32.67;nan
2563;BME280;1291;51.420;6.970;2023-07-16T02:33:47;99517.53;;;32.34;nan
2563;BME280;1291;51.420;6.970;2023-07-16T02:36:12;99523.78;;;32.35;nan
2563;BME280;1291;51.420;6.970;2023-07-16T02:38:38;99520.31;;;32.58;nan
2563;BME280;1291;51.420;6.970;2023-07-16T02:41:03;99521.41;;;33.28;nan
2563;BME280;1291;51.420;6.970;2023-07-16T02:43:28;99526.03;;;33.50;nan
2563;BME280;1291;51.420;6.970;2023-07-16T02:45:54;99525.47;;;32.61;nan
2563;BME280;1291;51.420;6.970;2023-07-16T02:48:19;99530.34;;;33.04;nan
2563;BME280;1291;51.420;6.970;2023-07-16T02:50:44;99523.63;;;33.23;nan
2563;BME280;1291;51.420;6.970;2023-07-16T02:53:09;99526.47;;;31.83;nan
2563;BME280;1291;51.420;6.970;2023-07-16T02:55:35;99534.69;;;32.07;nan
2563;BME280;1291;51.420;6.970;2023-07-16T02:58:01;99531.16;;;33.18;nan
2563;BME280;1291;51.420;6.970;2023-07-16T03:00:33;99526.88;;;31.51;nan
2563;BME280;1291;51.420;6.970;2023-07-16T03:02:59;99528.75;;;32.78;nan
2563;BME280;1291;51.420;6.970;2023-07-16T03:05:28;99532.78;;;32.46;nan
2563;BME280;1291;51.420;6.970;2023-07-16T03:07:56;99536.25;;;32.36;nan
2563;BME280;1291;51.420;6.970;2023-07-16T03:10:22;99533.66;;;32.34;nan
2563;BME280;1291;51.420;6.970;2023-07-16T03:12:48;99534.88;;;31.26;nan
2563;BME280;1291;51.420;6.970;2023-07-16T03:15:16;99535.09;;;31.23;nan
2563;BME280;1291;51.420;6.970;2023-07-16T03:17:41;99547.00;;;32.36;nan
2563;BME280;1291;51.420;6.970;2023-07-16T03:20:07;99543.69;;;31.68;nan
2563;BME280;1291;51.420;6.970;2023-07-16T03:22:36;99549.22;;;30.70;nan
2563;BME280;1291;51.420;6.970;2023-07-16T03:25:04;99547.84;;;31.85;nan
2563;BME280;1291;51.420;6.970;2023-07-16T03:27:30;99550.03;;;32.18;nan
2563;BME280;1291;51.420;6.970;2023-07-16T03:29:59;99559.16;;;31.10;nan
2563;BME280;1291;51.420;6.970;2023-07-16T03:32:24;99559.00;;;30.57;nan
2563;BME280;1291;51.420;6.970;2023-07-16T03:34:49;99560.38;;;31.19;nan
2563;BME280;1291;51.420;6.970;2023-07-16T03:37:14;99559.09;;;30.97;nan
2563;BME280;1291;51.420;6.970;2023-07-16T03:39:40;99553.75;;;31.77;nan
2563;BME280;1291;51.420;6.970;2023-07-16T03:42:05;99554.72;;;31.50;nan
2563;BME280;1291;51.420;6.970;2023-07-16T03:44:30;99572.38;;;32.06;nan
2563;BME280;1291;51.420;6.970;2023-07-16T03:46:56;99573.94;;;31.70;nan
2563;BME280;1291;51.420;6.970;2023-07-16T03:49:21;99575.47;;;31.74;nan
2563;BME280;1291;51.420;6.970;2023-07-16T03:51:46;99578.22;;;31.60;nan
2563;BME280;1291;51.420;6.970;2023-07-16T03:54:12;99586.63;;;31.81;nan
2563;BME280;1291;51.420;6.970;2023-07-16T03:56:37;99594.44;;;31.58;nan
2563;BME280;1291;51.420;6.970;2023-07-16T03:59:02;99601.13;;;31.78;nan
2563;BME280;1291;51.420;6.970;2023-07-16T04:01:27;99595.25;;;31.46;nan
2563;BME280;1291;51.420;6.970;2023-07-16T04:03:53;99597.78;;;32.51;nan
2563;BME280;1291;51.420;6.970;2023-07-16T04:06:18;99604.13;;;30.92;nan
2563;BME280;1291;51.420;6.970;2023-07-16T04:08:43;99606.13;;;31.57;nan
2563;BME280;1291;51.420;6.970;2023-07-16T04:11:09;99597.06;;;31.45;nan
2563;BME280;1291;51.420;6.970;2023-07-16T04:13:34;99596.88;;;32.14;nan
2563;BME280;1291;51.420;6.970;2023-07-16T04:15:59;99606.13;;;31.57;nan
2563;BME280;1291;51.420;6.970;2023-07-16T04:18:25;99605.09;;;31.72;nan
2563;BME280;1291;51.420;6.970;2023-07-16T04:20:50;99606.88;;;32.12;nan
2563;BME280;1291;51.420;6.970;2023-07-16T04:23:16;99606.75;;;32.52;nan
2563;BME280;1291;51.420;6.970;2023-07-16T04:25:41;99610.56;;;31.97;nan
2563;BME280;1291;51.420;6.970;2023-07-16T04:28:06;99625.78;;;31.43;nan
2563;BME280;1291;51.420;6.970;2023-07-16T04:30:32;99621.47;;;31.55;nan
2563;BME280;1291;51.420;6.970;2023-07-16T04:33:00;99615.81;;;32.88;nan
2563;BME280;1291;51.420;6.970;2023-07-16T04:35:25;99621.66;;;31.92;nan
2563;BME280;1291;51.420;6.970;2023-07-16T04:37:50;99631.34;;;31.40;nan
2563;BME280;1291;51.420;6.970;2023-07-16T04:40:16;99625.19;;;31.80;nan
2563;BME280;1291;51.420;6.970;2023-07-16T04:42:41;99638.75;;;32.17;nan
2563;BME280;1291;51.420;6.970;2023-07-16T04:45:07;99632.84;;;32.24;nan
2563;BME280;1291;51.420;6.970;2023-07-16T04:47:32;99647.34;;;31.14;nan
2563;BME280;1291;51.420;6.970;2023-07-16T04:49:58;99647.97;;;32.00;nan
2563;BME280;1291;51.420;6.970;2023-07-16T04:52:24;99652.81;;;31.40;nan
2563;BME280;1291;51.420;6.970;2023-07-16T04:54:49;99641.97;;;31.56;nan
2563;BME280;1291;51.420;6.970;2023-07-16T04:57:14;99647.66;;;31.37;nan
2563;BME280;1291;51.420;6.970;2023-07-16T04:59:40;99650.38;;;30.96;nan
2563;BME280;1291;51.420;6.970;2023-07-16T05:02:06;99653.22;;;31.34;nan
2563;BME280;1291;51.420;6.970;2023-07-16T05:04:32;99656.41;;;30.42;nan
2563;BME280;1291;51.420;6.970;2023-07-16T05:06:57;99648.34;;;31.68;nan
2563;BME280;1291;51.420;6.970;2023-07-16T05:09:23;99654.13;;;31.20;nan
2563;BME280;1291;51.420;6.970;2023-07-16T05:11:51;99663.06;;;32.15;nan
2563;BME280;1291;51.420;6.970;2023-07-16T05:14:16;99662.53;;;32.36;nan
2563;BME280;1291;51.420;6.970;2023-07-16T05:16:41;99672.25;;;31.58;nan
2563;BME280;1291;51.420;6.970;2023-07-16T05:19:07;99675.19;;;32.08;nan
2563;BME280;1291;51.420;6.970;2023-07-16T05:21:32;99675.19;;;32.34;nan
2563;BME280;1291;51.420;6.970;2023-07-16T05:23:57;99669.41;;;32.65;nan
2563;BME280;1291;51.420;6.970;2023-07-16T05:26:22;99669.63;;;32.37;nan
2563;BME280;1291;51.420;6.970;2023-07-16T05:28:48;99669.56;;;31.98;nan
2563;BME280;1291;51.420;6.970;2023-07-16T05:31:13;99678.91;;;31.65;nan
2563;BME280;1291;51.420;6.970;2023-07-16T05:33:38;99674.75;;;32.14;nan
2563;BME280;1291;51.420;6.970;2023-07-16T05:36:04;99679.09;;;31.35;nan
2563;BME280;1291;51.420;6.970;2023-07-16T05:38:29;99680.50;;;30.85;nan
2563;BME280;1291;51.420;6.970;2023-07-16T05:41:00;99683.69;;;31.75;nan
2563;BME280;1291;51.420;6.970;2023-07-16T05:43:26;99684.63;;;32.01;nan
2563;BME280;1291;51.420;6.970;2023-07-16T05:45:51;99674.81;;;29.87;nan
2563;BME280;1291;51.420;6.970;2023-07-16T05:48:16;99687.91;;;30.52;nan
2563;BME280;1291;51.420;6.970;2023-07-16T05:50:44;99681.66;;;30.95;nan
2563;BME280;1291;51.420;6.970;2023-07-16T05:53:09;99678.75;;;31.27;nan
2563;BME280;1291;51.420;6.970;2023-07-16T05:55:34;99687.56;;;32.23;nan
2563;BME280;1291;51.420;6.970;2023-07-16T05:58:00;99689.94;;;31.88;nan
2563;BME280;1291;51.420;6.970;2023-07-16T06:00:25;99686.81;;;32.34;nan
2563;BME280;1291;51.420;6.970;2023-07-16T06:02:53;99686.78;;;31.81;nan
2563;BME280;1291;51.420;6.970;2023-07-16T06:05:18;99687.91;;;31.91;nan
2563;BME280;1291;51.420;6.970;2023-07-16T06:07:44;99692.53;;;31.89;nan
2563;BME280;1291;51.420;6.970;2023-07-16T06:10:09;99694.75;;;32.10;nan
2563;BME280;1291;51.420;6.970;2023-07-16T06:12:34;99696.59;;;32.48;nan
2563;BME280;1291;51.420;6.970;2023-07-16T06:15:00;99694.88;;;30.98;nan
2563;BME280;1291;51.420;6.970;2023-07-16T06:17:26;99693.88;;;32.09;nan
2563;BME280;1291;51.420;6.970;2023-07-16T06:19:51;99707.97;;;30.45;nan
2563;BME280;1291;51.420;6.970;2023-07-16T06:22:17;99704.22;;;31.88;nan
2563;BME280;1291;51.420;6.970;2023-07-16T06:24:42;99707.97;;;30.88;nan
2563;BME280;1291;51.420;6.970;2023-07-16T06:27:07;99710.63;;;31.73;nan
2563;BME280;1291;51.420;6.970;2023-07-16T06:29:33;99714.88;;;32.43;nan
2563;BME280;1291;51.420;6.970;2023-07-16T06:31:58;99718.00;;;32.37;nan
2563;BME280;1291;51.420;6.970;2023-07-16T06:34:25;99716.22;;;31.83;nan
2563;BME280;1291;51.420;6.970;2023-07-16T06:36:50;99720.75;;;31.82;nan
2563;BME280;1291;51.420;6.970;2023-07-16T06:39:16;99711.63;;;33.15;nan
2563;BME280;1291;51.420;6.970;2023-07-16T06:41:41;99723.78;;;31.22;nan
2563;BME280;1291;51.420;6.970;2023-07-16T06:44:07;99732.53;;;31.11;nan
2563;BME280;1291;51.420;6.970;2023-07-16T06:46:32;99734.69;;;32.80;nan
2563;BME280;1291;51.420;6.970;2023-07-16T06:48:57;99730.22;;;33.31;nan
2563;BME280;1291;51.420;6.970;2023-07-16T06:51:22;99735.31;;;32.84;nan
2563;BME280;1291;51.420;6.970;2023-07-16T06:53:51;99733.28;;;31.13;nan
2563;BME280;1291;51.420;6.970;2023-07-16T06:56:16;99729.41;;;31.73;nan
2563;BME280;1291;51.420;6.970;2023-07-16T06:58:44;99734.25;;;31.68;nan
2563;BME280;1291;51.420;6.970;2023-07-16T07:01:10;99722.50;;;33.00;nan
2563;BME280;1291;51.420;6.970;2023-07-16T07:03:35;99724.66;;;33.45;nan
2563;BME280;1291;51.420;6.970;2023-07-16T07:06:04;99726.16;;;33.25;nan
2563;BME280;1291;51.420;6.970;2023-07-16T07:08:32;99725.63;;;32.94;nan
2563;BME280;1291;51.420;6.970;2023-07-16T07:10:58;99726.81;;;32.77;nan
2563;BME280;1291;51.420;6.970;2023-07-16T07:13:24;99723.94;;;33.43;nan
2563;BME280;1291;51.420;6.970;2023-07-16T07:15:49;99724.59;;;32.05;nan
2563;BME280;1291;51.420;6.970;2023-07-16T07:18:15;99728.28;;;32.17;nan
2563;BME280;1291;51.420;6.970;2023-07-16T07:20:40;99717.81;;;33.28;nan
2563;BME280;1291;51.420;6.970;2023-07-16T07:23:06;99727.25;;;32.84;nan
2563;BME280;1291;51.420;6.970;2023-07-16T07:25:32;99734.47;;;32.05;nan
2563;BME280;1291;51.420;6.970;2023-07-16T07:27:57;99730.63;;;32.09;nan
2563;BME280;1291;51.420;6.970;2023-07-16T07:30:23;99742.28;;;31.68;nan
2563;BME280;1291;51.420;6.970;2023-07-16T07:32:51;99728.44;;;32.80;nan
2563;BME280;1291;51.420;6.970;2023-07-16T07:35:16;99744.91;;;31.41;nan
2563;BME280;1291;51.420;6.970;2023-07-16T07:37:42;99736.63;;;32.12;nan
2563;BME280;1291;51.420;6.970;2023-07-16T07:40:07;99742.16;;;31.28;nan
2563;BME280;1291;51.420;6.970;2023-07-16T07:42:33;99740.84;;;32.17;nan
2563;BME280;1291;51.420;6.970;2023-07-16T07:44:58;99750.38;;;30.53;nan
2563;BME280;1291;51.420;6.970;2023-07-16T07:47:27;99735.06;;;33.25;nan
2563;BME280;1291;51.420;6.970;2023-07-16T07:49:52;99740.16;;;32.92;nan
2563;BME280;1291;51.420;6.970;2023-07-16T07:52:18;99744.44;;;33.07;nan
2563;BME280;1291;51.420;6.970;2023-07-16T07:54:43;99744.09;;;32.47;nan
2563;BME280;1291;51.420;6.970;2023-07-16T07:57:08;99743.47;;;33.08;nan
2563;BME280;1291;51.420;6.970;2023-07-16T07:59:34;99745.50;;;33.67;nan
2563;BME280;1291;51.420;6.970;2023-07-16T08:01:59;99746.34;;;33.05;nan
2563;BME280;1291;51.420;6.970;2023-07-16T08:04:26;99754.06;;;34.20;nan
2563;BME280;1291;51.420;6.970;2023-07-16T08:06:53;99740.56;;;33.24;nan
2563;BME280;1291;51.420;6.970;2023-07-16T08:09:19;99750.03;;;32.91;nan
2563;BME280;1291;51.420;6.970;2023-07-16T08:11:44;99749.06;;;33.55;nan
2563;BME280;1291;51.420;6.970;2023-07-16T08:14:09;99754.75;;;33.26;nan
2563;BME280;1291;51.420;6.970;2023-07-16T08:16:35;99751.31;;;32.98;nan
2563;BME280;1291;51.420;6.970;2023-07-16T08:19:00;99761.38;;;34.07;nan
2563;BME280;1291;51.420;6.970;2023-07-16T08:21:25;99763.69;;;31.82;nan
2563;BME280;1291;51.420;6.970;2023-07-16T08:23:51;99766.00;;;32.28;nan
2563;BME280;1291;51.420;6.970;2023-07-16T08:26:17;99768.88;;;32.12;nan
2563;BME280;1291;51.420;6.970;2023-07-16T08:28:43;99767.97;;;33.79;nan
2563;BME280;1291;51.420;6.970;2023-07-16T08:31:10;99762.06;;;33.24;nan
2563;BME280;1291;51.420;6.970;2023-07-16T08:33:36;99770.66;;;33.79;nan
2563;BME280;1291;51.420;6.970;2023-07-16T08:36:02;99767.47;;;33.61;nan
2563;BME280;1291;51.420;6.970;2023-07-16T08:38:27;99769.44;;;33.83;nan
2563;BME280;1291;51.420;6.970;2023-07-16T08:40:52;99770.13;;;33.37;nan
2563;BME280;1291;51.420;6.970;2023-07-16T08:43:18;99770.41;;;32.95;nan
2563;BME280;1291;51.420;6.970;2023-07-16T08:45:45;99782.03;;;31.48;nan
2563;BME280;1291;51.420;6.970;2023-07-16T08:48:12;99791.78;;;32.84;nan
2563;BME280;1291;51.420;6.970;2023-07-16T08:50:37;99783.44;;;33.64;nan
2563;BME280;1291;51.420;6.970;2023-07-16T08:53:06;99780.19;;;33.72;nan
2563;BME280;1291;51.420;6.970;2023-07-16T08:55:32;99784.91;;;33.05;nan
2563;BME280;1291;51.420;6.970;2023-07-16T08:57:58;99794.47;;;33.35;nan
2563;BME280;1291;51.420;6.970;2023-07-16T09:00:26;99793.59;;;34.44;nan
2563;BME280;1291;51.420;6.970;2023-07-16T09:02:55;99789.22;;;33.21;nan
2563;BME280;1291;51.420;6.970;2023-07-16T09:05:21;99786.91;;;33.40;nan
2563;BME280;1291;51.420;6.970;2023-07-16T09:07:47;99802.34;;;33.99;nan
2563;BME280;1291;51.420;6.970;2023-07-16T09:10:13;99789.97;;;33.10;nan
2563;BME280;1291;51.420;6.970;2023-07-16T09:12:43;99793.22;;;32.37;nan
2563;BME280;1291;51.420;6.970;2023-07-16T09:15:08;99793.72;;;33.33;nan
2563;BME280;1291;51.420;6.970;2023-07-16T09:17:34;99797.06;;;32.73;nan
2563;BME280;1291;51.420;6.970;2023-07-16T09:20:02;99793.53;;;34.21;nan
2563;BME280;1291;51.420;6.970;2023-07-16T09:22:29;99798.09;;;34.67;nan
2563;BME280;1291;51.420;6.970;2023-07-16T09:24:54;99804.31;;;33.97;nan
2563;BME280;1291;51.420;6.970;2023-07-16T09:27:28;99796.47;;;33.81;nan
2563;BME280;1291;51.420;6.970;2023-07-16T09:29:53;99799.69;;;34.11;nan
2563;BME280;1291;51.420;6.970;2023-07-16T09:32:19;99798.22;;;34.77;nan
2563;BME280;1291;51.420;6.970;2023-07-16T09:34:44;99796.00;;;34.71;nan
2563;BME280;1291;51.420;6.970;2023-07-16T09:37:10;99806.75;;;35.29;nan
2563;BME280;1291;51.420;6.970;2023-07-16T09:39:35;99806.22;;;34.79;nan
2563;BME280;1291;51.420;6.970;2023-07-16T09:42:01;99814.91;;;33.87;nan
2563;BME280;1291;51.420;6.970;2023-07-16T09:44:27;99810.47;;;34.11;nan
2563;BME280;1291;51.420;6.970;2023-07-16T09:46:52;99809.91;;;34.42;nan
2563;BME280;1291;51.420;6.970;2023-07-16T09:49:18;99809.78;;;33.59;nan
2563;BME280;1291;51.420;6.970;2023-07-16T09:51:45;99816.97;;;33.84;nan
2563;BME280;1291;51.420;6.970;2023-07-16T09:54:13;99820.88;;;32.11;nan
2563;BME280;1291;51.420;6.970;2023-07-16T09:56:44;99818.94;;;34.77;nan
2563;BME280;1291;51.420;6.970;2023-07-16T09:59:20;99810.88;;;36.11;nan
2563;BME280;1291;51.420;6.970;2023-07-16T10:01:46;99815.75;;;35.96;nan
2563;BME280;1291;51.420;6.970;2023-07-16T10:06:51;99814.13;;;35.38;nan
2563;BME280;1291;51.420;6.970;2023-07-16T10:09:36;99824.94;;;35.38;nan
2563;BME280;1291;51.420;6.970;2023-07-16T10:12:11;99831.63;;;34.52;nan
2563;BME280;1291;51.420;6.970;2023-07-16T10:14:50;99829.09;;;35.42;nan
2563;BME280;1291;51.420;6.970;2023-07-16T10:17:20;99823.56;;;36.21;nan
2563;BME280;1291;51.420;6.970;2023-07-16T10:20:03;99838.97;;;34.15;nan
2563;BME280;1291;51.420;6.970;2023-07-16T10:22:37;99825.53;;;35.76;nan
2563;BME280;1291;51.420;6.970;2023-07-16T10:25:31;99834.25;;;33.93;nan
2563;BME280;1291;51.420;6.970;2023-07-16T10:27:59;99841.84;;;32.19;nan
2563;BME280;1291;51.420;6.970;2023-07-16T10:30:24;99835.13;;;34.77;nan
2563;BME280;1291;51.420;6.970;2023-07-16T10:32:52;99836.63;;;36.05;nan
2563;BME280;1291;51.420;6.970;2023-07-16T10:35:18;99843.00;;;34.56;nan
2563;BME280;1291;51.420;6.970;2023-07-16T10:37:47;99839.78;;;36.10;nan
2563;BME280;1291;51.420;6.970;2023-07-16T10:40:13;99837.44;;;36.49;nan
2563;BME280;1291;51.420;6.970;2023-07-16T10:42:43;99842.78;;;32.85;nan
2563;BME280;1291;51.420;6.970;2023-07-16T10:45:09;99853.34;;;34.97;nan
2563;BME280;1291;51.420;6.970;2023-07-16T10:47:36;99848.13;;;34.72;nan
2563;BME280;1291;51.420;6.970;2023-07-16T10:50:07;99853.25;;;35.55;nan
2563;BME280;1291;51.420;6.970;2023-07-16T10:52:34;99844.09;;;36.87;nan
2563;BME280;1291;51.420;6.970;2023-07-16T10:54:59;99856.41;;;35.04;nan
2563;BME280;1291;51.420;6.970;2023-07-16T10:57:26;99855.78;;;34.65;nan
2563;BME280;1291;51.420;6.970;2023-07-16T10:59:53;99853.00;;;35.47;nan
2563;BME280;1291;51.420;6.970;2023-07-16T11:02:21;99847.00;;;35.32;nan
2563;BME280;1291;51.420;6.970;2023-07-16T11:04:47;99847.75;;;35.23;nan
2563;BME280;1291;51.420;6.970;2023-07-16T11:07:13;99854.06;;;35.11;nan
2563;BME280;1291;51.420;6.970;2023-07-16T11:09:48;99854.53;;;34.46;nan
2563;BME280;1291;51.420;6.970;2023-07-16T11:12:16;99863.44;;;35.29;nan
2563;BME280;1291;51.420;6.970;2023-07-16T11:14:43;99854.84;;;35.80;nan
2563;BME280;1291;51.420;6.970;2023-07-16T11:17:10;99861.63;;;34.83;nan
2563;BME280;1291;51.420;6.970;2023-07-16T11:19:36;99854.13;;;36.54;nan
2563;BME280;1291;51.420;6.970;2023-07-16T11:22:03;99855.59;;;35.60;nan
2563;BME280;1291;51.420;6.970;2023-07-16T11:24:38;99856.84;;;36.54;nan
2563;BME280;1291;51.420;6.970;2023-07-16T11:27:05;99868.56;;;36.00;nan
2563;BME280;1291;51.420;6.970;2023-07-16T11:29:37;99865.19;;;33.87;nan
2563;BME280;1291;51.420;6.970;2023-07-16T11:32:02;99872.13;;;32.76;nan
2563;BME280;1291;51.420;6.970;2023-07-16T11:34:28;99865.53;;;35.37;nan
2563;BME280;1291;51.420;6.970;2023-07-16T11:36:53;99865.91;;;34.15;nan
2563;BME280;1291;51.420;6.970;2023-07-16T11:39:18;99873.53;;;35.38;nan
2563;BME280;1291;51.420;6.970;2023-07-16T11:41:58;99859.03;;;35.62;nan
2563;BME280;1291;51.420;6.970;2023-07-16T11:44:23;99880.09;;;33.80;nan
2563;BME280;1291;51.420;6.970;2023-07-16T11:46:49;99867.38;;;35.81;nan
2563;BME280;1291;51.420;6.970;2023-07-16T11:49:15;99870.41;;;35.20;nan
2563;BME280;1291;51.420;6.970;2023-07-16T11:51:40;99875.63;;;34.88;nan
2563;BME280;1291;51.420;6.970;2023-07-16T11:54:11;99870.88;;;35.03;nan
2563;BME280;1291;51.420;6.970;2023-07-16T11:56:36;99876.78;;;34.37;nan
2563;BME280;1291;51.420;6.970;2023-07-16T11:59:01;99874.00;;;35.77;nan
2563;BME280;1291;51.420;6.970;2023-07-16T12:01:27;99879.28;;;35.45;nan
2563;BME280;1291;51.420;6.970;2023-07-16T12:03:52;99883.06;;;35.20;nan
2563;BME280;1291;51.420;6.970;2023-07-16T12:06:17;99881.97;;;35.45;nan
2563;BME280;1291;51.420;6.970;2023-07-16T12:08:43;99873.94;;;35.10;nan
2563;BME280;1291;51.420;6.970;2023-07-16T12:11:08;99883.72;;;35.80;nan
2563;BME280;1291;51.420;6.970;2023-07-16T12:13:33;99881.97;;;35.56;nan
2563;BME280;1291;51.420;6.970;2023-07-16T12:15:59;99871.56;;;35.74;nan
2563;BME280;1291;51.420;6.970;2023-07-16T12:18:24;99877.63;;;35.09;nan
2563;BME280;1291;51.420;6.970;2023-07-16T12:20:49;99890.00;;;36.68;nan
2563;BME280;1291;51.420;6.970;2023-07-16T12:23:15;99885.75;;;35.99;nan
2563;BME280;1291;51.420;6.970;2023-07-16T12:25:40;99881.31;;;36.09;nan
2563;BME280;1291;51.420;6.970;2023-07-16T12:28:08;99897.59;;;35.06;nan
2563;BME280;1291;51.420;6.970;2023-07-16T12:30:34;99877.50;;;36.44;nan
2563;BME280;1291;51.420;6.970;2023-07-16T12:33:02;99891.59;;;35.02;nan
2563;BME280;1291;51.420;6.970;2023-07-16T12:35:29;99893.88;;;36.75;nan
2563;BME280;1291;51.420;6.970;2023-07-16T12:38:00;99896.03;;;35.03;nan
2563;BME280;1291;51.420;6.970;2023-07-16T12:40:29;99896.13;;;36.70;nan
2563;BME280;1291;51.420;6.970;2023-07-16T12:42:55;99898.72;;;34.20;nan
2563;BME280;1291;51.420;6.970;2023-07-16T12:45:20;99900.03;;;35.44;nan
2563;BME280;1291;51.420;6.970;2023-07-16T12:47:46;99903.28;;;33.31;nan
2563;BME280;1291;51.420;6.970;2023-07-16T12:50:17;99899.31;;;37.17;nan
2563;BME280;1291;51.420;6.970;2023-07-16T12:52:42;99909.81;;;34.52;nan
2563;BME280;1291;51.420;6.970;2023-07-16T12:55:08;99903.22;;;35.83;nan
2563;BME280;1291;51.420;6.970;2023-07-16T12:57:33;99899.84;;;36.02;nan
2563;BME280;1291;51.420;6.970;2023-07-16T12:59:58;99904.56;;;35.33;nan
2563;BME280;1291;51.420;6.970;2023-07-16T13:02:24;99904.84;;;35.05;nan
2563;BME280;1291;51.420;6.970;2023-07-16T13:04:49;99900.66;;;35.71;nan
2563;BME280;1291;51.420;6.970;2023-07-16T13:07:14;99905.44;;;36.98;nan
2563;BME280;1291;51.420;6.970;2023-07-16T13:09:39;99905.78;;;36.84;nan
2563;BME280;1291;51.420;6.970;2023-07-16T13:12:08;99898.56;;;36.73;nan
2563;BME280;1291;51.420;6.970;2023-07-16T13:14:33;99907.78;;;36.38;nan
2563;BME280;1291;51.420;6.970;2023-07-16T13:16:58;99907.13;;;37.62;nan
2563;BME280;1291;51.420;6.970;2023-07-16T13:19:26;99912.03;;;35.52;nan
2563;BME280;1291;51.420;6.970;2023-07-16T13:21:51;99906.06;;;33.55;nan
2563;BME280;1291;51.420;6.970;2023-07-16T13:24:17;99909.81;;;35.45;nan
2563;BME280;1291;51.420;6.970;2023-07-16T13:26:42;99915.72;;;35.17;nan
2563;BME280;1291;51.420;6.970;2023-07-16T13:29:07;99901.09;;;35.87;nan
2563;BME280;1291;51.420;6.970;2023-07-16T13:31:32;99906.78;;;35.84;nan
2563;BME280;1291;51.420;6.970;2023-07-16T13:33:58;99923.63;;;36.42;nan
2563;BME280;1291;51.420;6.970;2023-07-16T13:36:23;99913.47;;;37.30;nan
2563;BME280;1291;51.420;6.970;2023-07-16T13:38:51;99918.09;;;36.76;nan
2563;BME280;1291;51.420;6.970;2023-07-16T13:41:17;99909.72;;;35.58;nan
2563;BME280;1291;51.420;6.970;2023-07-16T13:43:43;99920.69;;;35.68;nan
2563;BME280;1291;51.420;6.970;2023-07-16T13:46:08;99917.44;;;35.40;nan